Time;durP1;ratioP1;P1;durP2;ratioP2;P2;SDS_P1;SDS_P2;PMS_P1;PMS_P2;Temp;Humidity;BMP_temperature;BMP_pressure;BME280_temperature;BME280_humidity;BME280_pressure;Samples;Min_cycle;Max_cycle;Signal;HPM_P1;HPM_P2
2022/05/25 00:01:00;;;;;;;3.20;1.47;;;13.90;99.90;;;;;;5033804;28;20175;-68
2022/05/25 00:03:28;;;;;;;3.67;1.83;;;13.90;99.90;;;;;;5033394;28;20188;-67
2022/05/25 00:05:53;;;;;;;2.93;1.80;;;13.70;99.90;;;;;;5033046;28;20413;-68
2022/05/25 00:08:19;;;;;;;2.10;1.50;;;13.80;99.90;;;;;;5033132;28;20406;-68
2022/05/25 00:10:44;;;;;;;2.17;1.80;;;13.80;99.90;;;;;;5033074;28;20417;-68
2022/05/25 00:13:10;;;;;;;2.53;2.30;;;13.60;99.90;;;;;;5032797;28;20187;-69
2022/05/25 00:15:36;;;;;;;1.67;1.57;;;13.60;99.90;;;;;;5032673;28;20168;-68
2022/05/25 00:18:02;;;;;;;2.70;2.37;;;13.50;99.90;;;;;;5032664;28;20183;-68
2022/05/25 00:20:27;;;;;;;2.10;2.00;;;13.50;99.90;;;;;;5032564;28;20704;-68
2022/05/25 00:22:54;;;;;;;2.83;2.20;;;13.50;99.90;;;;;;5032564;28;20422;-68
2022/05/25 00:25:25;;;;;;;3.57;1.73;;;13.40;99.90;;;;;;5032322;28;20696;-68
2022/05/25 00:27:50;;;;;;;2.87;2.47;;;13.50;99.90;;;;;;5034295;28;20431;-68
2022/05/25 00:30:17;;;;;;;2.60;2.27;;;13.50;99.90;;;;;;5034831;28;20417;-69
2022/05/25 00:32:44;;;;;;;3.93;2.43;;;13.50;99.90;;;;;;5034977;28;20317;-69
2022/05/25 00:35:13;;;;;;;2.30;2.10;;;13.50;99.90;;;;;;5034315;28;20418;-69
2022/05/25 00:37:39;;;;;;;2.50;2.03;;;13.60;99.90;;;;;;5034532;28;20600;-69
2022/05/25 00:40:06;;;;;;;3.27;2.63;;;13.50;99.90;;;;;;5034748;28;20549;-68
2022/05/25 00:42:35;;;;;;;3.37;2.30;;;13.40;99.90;;;;;;5034632;28;20791;-69
2022/05/25 00:45:00;;;;;;;2.57;2.17;;;13.50;99.90;;;;;;5034615;28;20512;-68
2022/05/25 00:47:27;;;;;;;3.47;2.80;;;13.50;99.90;;;;;;5033776;28;20535;-68
2022/05/25 00:49:52;;;;;;;3.60;2.70;;;13.50;99.90;;;;;;5033416;28;20171;-68
2022/05/25 00:52:18;;;;;;;1.60;1.50;;;13.40;99.90;;;;;;5032135;28;20527;-69
2022/05/25 00:54:53;;;;;;;5.93;2.37;;;13.50;99.90;;;;;;5031824;28;20537;-69
2022/05/25 00:57:22;;;;;;;4.57;3.17;;;13.50;99.90;;;;;;5032061;28;20653;-69
2022/05/25 01:00:16;;;;;;;3.53;2.57;;;13.40;99.90;;;;;;5033792;28;20866;-69
2022/05/25 01:02:49;;;;;;;3.03;2.67;;;13.20;99.90;;;;;;5034479;28;20426;-68
2022/05/25 01:05:20;;;;;;;5.63;2.17;;;13.30;99.90;;;;;;5034353;28;20418;-69
2022/05/25 01:07:54;;;;;;;2.83;2.53;;;13.30;99.90;;;;;;5034902;28;20801;-69
2022/05/25 01:10:50;;;;;;;2.40;2.20;;;13.20;99.90;;;;;;5034443;28;20493;-69
2022/05/25 01:13:29;;;;;;;2.17;1.90;;;13.10;99.90;;;;;;5033987;28;20475;-69
2022/05/25 01:16:25;;;;;;;2.27;2.07;;;13.10;99.90;;;;;;5034308;28;20391;-69
2022/05/25 01:19:30;;;;;;;2.17;1.97;;;13.10;99.90;;;;;;5032900;28;20529;-69
2022/05/25 01:22:31;;;;;;;2.23;2.00;;;13.10;99.90;;;;;;5032705;28;20402;-69
2022/05/25 01:25:14;;;;;;;2.70;2.20;;;13.10;99.90;;;;;;5032814;28;20899;-69
2022/05/25 01:27:45;;;;;;;2.60;2.37;;;13.00;99.90;;;;;;5036235;28;20395;-69
2022/05/25 01:30:22;;;;;;;2.70;2.37;;;13.00;99.90;;;;;;5037331;28;20437;-69
2022/05/25 01:35:49;;;;;;;2.20;1.93;;;13.00;99.90;;;;;;5033678;23;20526;-67
2022/05/25 01:38:42;;;;;;;2.63;2.40;;;13.00;99.90;;;;;;5015066;28;20407;-68
2022/05/25 01:41:17;;;;;;;2.90;2.20;;;13.00;99.90;;;;;;5014803;28;20550;-67
2022/05/25 01:44:05;;;;;;;3.07;2.77;;;13.00;99.90;;;;;;5014624;28;20832;-67
2022/05/25 01:46:42;;;;;;;4.27;2.93;;;13.00;99.90;;;;;;5013933;28;20461;-67
2022/05/25 01:49:12;;;;;;;2.90;2.70;;;13.10;99.90;;;;;;5014308;28;20399;-66
2022/05/25 01:51:48;;;;;;;3.00;2.27;;;13.10;99.90;;;;;;5014694;28;20412;-67
2022/05/25 01:54:19;;;;;;;2.50;2.10;;;13.10;99.90;;;;;;5014072;28;20423;-67
2022/05/25 01:56:50;;;;;;;3.73;3.10;;;13.00;99.90;;;;;;5013759;28;20414;-67
2022/05/25 01:59:18;;;;;;;3.17;2.67;;;12.90;99.90;;;;;;5012377;28;20454;-67
2022/05/25 02:04:45;;;;;;;3.30;2.63;;;12.90;99.90;;;;;;5013821;28;20414;-66
2022/05/25 02:07:29;;;;;;;2.80;2.60;;;12.90;99.90;;;;;;5014023;28;20486;-67
2022/05/25 02:10:14;;;;;;;3.07;2.30;;;13.00;99.90;;;;;;5013704;28;20425;-67
2022/05/25 02:13:23;;;;;;;3.97;3.57;;;13.30;99.90;;;;;;5013532;28;20407;-67
2022/05/25 02:16:23;;;;;;;3.27;2.50;;;13.30;99.90;;;;;;4952643;29;20414;-66
2022/05/25 02:19:09;;;;;;;2.87;2.53;;;13.10;99.90;;;;;;4952809;29;20613;-67
2022/05/25 02:21:53;;;;;;;2.77;2.57;;;12.90;99.90;;;;;;5003003;28;20422;-67
2022/05/25 02:24:28;;;;;;;2.63;2.43;;;13.10;99.90;;;;;;5013182;28;20426;-66
2022/05/25 02:27:04;;;;;;;3.10;2.87;;;13.10;99.90;;;;;;5013554;28;20386;-67
2022/05/25 02:30:03;;;;;;;4.00;3.67;;;13.00;99.90;;;;;;5013340;28;20383;-67
2022/05/25 02:32:37;;;;;;;3.33;2.47;;;13.00;99.90;;;;;;5002676;28;20469;-67
2022/05/25 02:35:04;;;;;;;2.80;2.40;;;12.90;99.90;;;;;;5013022;28;20449;-67
2022/05/25 02:37:32;;;;;;;3.17;2.40;;;13.10;99.90;;;;;;5012635;28;20415;-68
2022/05/25 02:39:59;;;;;;;2.57;2.37;;;13.20;99.90;;;;;;5012320;28;20556;-68
2022/05/25 02:42:24;;;;;;;3.20;2.90;;;13.10;99.90;;;;;;5013276;28;20783;-66
2022/05/25 02:44:51;;;;;;;4.30;2.63;;;13.00;99.90;;;;;;5012766;28;20424;-67
2022/05/25 02:47:17;;;;;;;3.00;2.80;;;13.00;99.90;;;;;;5012966;28;20183;-67
2022/05/25 02:49:43;;;;;;;2.97;2.67;;;13.10;99.90;;;;;;5012798;28;20415;-67
2022/05/25 02:52:09;;;;;;;4.70;3.03;;;13.20;99.90;;;;;;5012844;28;20437;-67
2022/05/25 02:54:36;;;;;;;3.30;2.60;;;13.30;99.90;;;;;;5012724;28;20731;-68
2022/05/25 02:57:02;;;;;;;2.60;2.40;;;13.50;99.90;;;;;;5012819;28;20776;-67
2022/05/25 02:59:27;;;;;;;7.03;3.37;;;13.70;99.90;;;;;;5012790;28;20439;-67
2022/05/25 03:01:52;;;;;;;3.03;2.83;;;13.80;99.90;;;;;;5012761;28;20980;-68
2022/05/25 03:04:18;;;;;;;4.23;3.00;;;13.90;99.90;;;;;;5012441;28;20446;-67
2022/05/25 03:06:43;;;;;;;3.77;3.13;;;13.80;99.90;;;;;;5012383;28;20168;-68
2022/05/25 03:09:09;;;;;;;2.77;2.50;;;13.70;99.90;;;;;;5012571;28;20199;-67
2022/05/25 03:11:34;;;;;;;3.20;2.60;;;13.60;99.90;;;;;;5012499;28;20215;-67
2022/05/25 03:14:00;;;;;;;2.87;2.67;;;13.60;99.90;;;;;;5012476;28;20195;-67
2022/05/25 03:16:26;;;;;;;3.20;2.67;;;13.60;99.90;;;;;;5012377;28;20182;-67
2022/05/25 03:18:51;;;;;;;3.63;2.63;;;13.70;99.90;;;;;;5012725;28;20196;-67
2022/05/25 03:21:20;;;;;;;2.60;2.40;;;13.70;99.90;;;;;;5012519;28;20188;-67
2022/05/25 03:23:46;;;;;;;4.07;3.20;;;13.70;99.90;;;;;;5012368;28;20267;-66
2022/05/25 03:26:12;;;;;;;3.63;3.20;;;13.70;99.90;;;;;;5012754;28;20917;-67
2022/05/25 03:28:37;;;;;;;3.27;2.67;;;13.80;99.90;;;;;;5012492;28;20659;-67
2022/05/25 03:31:04;;;;;;;8.93;3.03;;;13.80;99.90;;;;;;5012244;28;20411;-66
2022/05/25 03:33:30;;;;;;;3.70;2.90;;;13.80;99.90;;;;;;5012132;28;20208;-66
2022/05/25 03:35:56;;;;;;;3.10;2.80;;;13.90;99.90;;;;;;5011864;28;20493;-66
2022/05/25 03:38:22;;;;;;;3.00;2.67;;;13.90;99.90;;;;;;5012338;28;20875;-66
2022/05/25 03:40:47;;;;;;;3.33;2.77;;;13.90;99.90;;;;;;5012068;28;20236;-66
2022/05/25 03:43:16;;;;;;;2.97;2.77;;;13.90;99.90;;;;;;5012220;28;20206;-67
2022/05/25 03:45:42;;;;;;;2.83;2.60;;;13.90;99.90;;;;;;5012141;28;20186;-67
2022/05/25 03:48:07;;;;;;;2.97;2.60;;;13.90;99.90;;;;;;5012271;28;20491;-67
2022/05/25 03:50:41;;;;;;;2.90;2.70;;;13.90;99.90;;;;;;5011455;28;20160;-67
2022/05/25 03:53:08;;;;;;;2.93;2.50;;;14.00;99.90;;;;;;5012113;28;20183;-66
2022/05/25 03:55:34;;;;;;;3.30;3.00;;;14.00;99.90;;;;;;5011527;28;20926;-66
2022/05/25 03:58:01;;;;;;;3.10;2.80;;;14.00;99.90;;;;;;5011720;28;20407;-67
2022/05/25 04:00:26;;;;;;;6.17;2.50;;;14.00;99.90;;;;;;5012030;28;20470;-67
2022/05/25 04:02:52;;;;;;;2.70;2.40;;;14.00;99.90;;;;;;5011793;28;20862;-67
2022/05/25 04:05:18;;;;;;;8.73;2.87;;;14.10;99.90;;;;;;5011677;28;20255;-67
2022/05/25 04:07:46;;;;;;;2.90;2.70;;;14.20;99.90;;;;;;5011980;28;20177;-67
2022/05/25 04:10:15;;;;;;;2.93;2.73;;;14.20;99.90;;;;;;5011630;28;20411;-67
2022/05/25 04:12:41;;;;;;;2.90;2.70;;;14.20;99.90;;;;;;5011542;28;20469;-67
2022/05/25 04:15:09;;;;;;;3.17;2.73;;;14.40;99.90;;;;;;5011957;28;20419;-66
2022/05/25 04:17:35;;;;;;;2.80;2.40;;;14.40;99.90;;;;;;5011648;28;20745;-67
2022/05/25 04:20:01;;;;;;;3.40;2.73;;;14.50;99.90;;;;;;5011509;28;20446;-67
2022/05/25 04:22:27;;;;;;;2.57;2.47;;;14.30;99.90;;;;;;5011631;28;20438;-66
2022/05/25 04:24:52;;;;;;;2.70;2.50;;;14.40;99.90;;;;;;5011423;28;20525;-67
2022/05/25 04:27:18;;;;;;;3.07;2.77;;;14.40;99.90;;;;;;5011502;28;20179;-67
2022/05/25 04:29:44;;;;;;;3.20;2.63;;;14.50;99.90;;;;;;5011405;28;20592;-67
2022/05/25 04:32:10;;;;;;;3.70;3.37;;;14.60;99.90;;;;;;5011461;28;20489;-67
2022/05/25 04:34:35;;;;;;;6.50;2.57;;;14.60;99.90;;;;;;5011089;28;20214;-67
2022/05/25 04:39:45;;;;;;;3.07;2.57;;;14.60;99.90;;;;;;5011517;28;20218;-67
2022/05/25 04:42:11;;;;;;;2.27;2.10;;;14.70;99.90;;;;;;5011242;28;20407;-68
2022/05/25 04:44:36;;;;;;;2.27;2.07;;;14.70;99.90;;;;;;5011134;28;20188;-67
2022/05/25 04:47:02;;;;;;;3.37;2.60;;;14.80;99.90;;;;;;5011100;28;20164;-66
2022/05/25 04:49:28;;;;;;;2.43;2.23;;;14.80;99.90;;;;;;5011679;28;20218;-66
2022/05/25 04:51:53;;;;;;;2.80;2.60;;;14.90;99.90;;;;;;5011677;28;20198;-67
2022/05/25 04:54:19;;;;;;;3.17;2.90;;;14.90;99.90;;;;;;5011372;28;20446;-67
2022/05/25 04:59:29;;;;;;;2.70;2.40;;;14.90;99.90;;;;;;5011386;28;20222;-67
2022/05/25 05:01:54;;;;;;;2.97;2.30;;;15.00;99.90;;;;;;5012666;28;20439;-66
2022/05/25 05:04:20;;;;;;;2.90;2.60;;;15.20;99.90;;;;;;5014806;28;20294;-67
2022/05/25 05:06:47;;;;;;;3.43;3.13;;;15.40;99.90;;;;;;5014816;28;20638;-67
2022/05/25 05:09:13;;;;;;;2.60;2.10;;;15.50;99.90;;;;;;5015080;28;20255;-67
2022/05/25 05:11:38;;;;;;;3.67;2.60;;;15.60;99.90;;;;;;5015022;28;20843;-68
2022/05/25 05:14:04;;;;;;;3.10;2.80;;;16.00;99.90;;;;;;5015774;28;20200;-67
2022/05/25 05:16:29;;;;;;;4.27;2.57;;;16.30;99.90;;;;;;5015771;28;20170;-67
2022/05/25 05:18:55;;;;;;;3.43;2.13;;;16.10;99.90;;;;;;5014677;28;20233;-67
2022/05/25 05:21:21;;;;;;;2.33;2.17;;;16.30;99.90;;;;;;5014762;28;20201;-68
2022/05/25 05:23:46;;;;;;;3.20;2.47;;;16.40;99.90;;;;;;5014763;28;20263;-67
2022/05/25 05:26:13;;;;;;;2.90;2.60;;;17.00;99.90;;;;;;5014424;28;20175;-67
2022/05/25 05:28:41;;;;;;;3.77;2.50;;;17.30;99.90;;;;;;5014838;28;20642;-67
2022/05/25 05:31:07;;;;;;;4.40;2.93;;;17.30;99.90;;;;;;5014822;28;20404;-67
2022/05/25 05:33:33;;;;;;;2.47;2.20;;;17.80;99.90;;;;;;5014502;28;20475;-67
2022/05/25 05:36:22;;;;;;;2.23;2.03;;;18.00;99.90;;;;;;5014476;28;20448;-67
2022/05/25 05:38:50;;;;;;;3.13;2.40;;;18.70;99.90;;;;;;5014645;28;20243;-67
2022/05/25 05:41:19;;;;;;;1.93;1.73;;;18.20;99.90;;;;;;5014415;28;20471;-66
2022/05/25 05:43:44;;;;;;;2.63;2.43;;;18.80;99.90;;;;;;5014365;28;20523;-66
2022/05/25 05:46:11;;;;;;;2.23;2.03;;;18.40;99.90;;;;;;5014502;28;20503;-66
2022/05/25 05:48:38;;;;;;;2.20;2.00;;;18.80;99.90;;;;;;5014311;28;20165;-67
2022/05/25 05:51:04;;;;;;;3.27;2.30;;;19.50;99.90;;;;;;5014650;28;20403;-67
2022/05/25 05:53:30;;;;;;;2.60;1.80;;;19.80;99.90;;;;;;5014352;28;20428;-67
2022/05/25 05:55:57;;;;;;;2.73;2.53;;;19.40;99.90;;;;;;5014360;28;20498;-67
2022/05/25 05:58:23;;;;;;;2.03;1.80;;;19.60;99.90;;;;;;5014171;28;20428;-67
2022/05/25 06:00:48;;;;;;;5.63;2.17;;;19.90;99.90;;;;;;5013930;28;20456;-68
2022/05/25 06:03:15;;;;;;;2.13;1.93;;;19.70;99.90;;;;;;5013903;28;20518;-67
2022/05/25 06:05:41;;;;;;;2.27;2.10;;;20.70;99.90;;;;;;5014430;28;20185;-68
2022/05/25 06:08:13;;;;;;;2.20;2.00;;;19.20;99.90;;;;;;5014253;28;20428;-67
2022/05/25 06:10:40;;;;;;;2.73;2.53;;;20.50;99.90;;;;;;5013995;28;20409;-67
2022/05/25 06:13:07;;;;;;;2.70;2.50;;;20.30;99.90;;;;;;5013953;28;20777;-68
2022/05/25 06:21:02;;;;;;;2.00;1.90;;;20.50;99.90;;;;;;5014261;28;20399;-68
2022/05/25 06:23:27;;;;;;;2.03;1.60;;;21.40;99.90;;;;;;5014298;28;20508;-68
2022/05/25 06:25:53;;;;;;;3.07;2.63;;;21.90;99.90;;;;;;5013995;28;21013;-69
2022/05/25 06:28:19;;;;;;;2.10;1.90;;;22.10;99.90;;;;;;5013718;28;20176;-68
2022/05/25 06:30:44;;;;;;;2.50;1.93;;;21.20;99.90;;;;;;5013675;28;20273;-69
2022/05/25 06:33:10;;;;;;;2.80;2.33;;;21.60;99.90;;;;;;5013409;28;20269;-69
2022/05/25 06:35:37;;;;;;;2.80;2.60;;;20.70;99.90;;;;;;5013533;28;20236;-67
2022/05/25 06:38:03;;;;;;;2.00;1.90;;;19.40;99.90;;;;;;5013272;28;20183;-67
2022/05/25 06:40:29;;;;;;;1.93;1.77;;;20.60;99.90;;;;;;5012977;28;20494;-67
2022/05/25 06:42:54;;;;;;;1.63;1.53;;;21.80;99.90;;;;;;5012970;28;20870;-67
2022/05/25 06:45:20;;;;;;;2.80;2.43;;;21.10;99.90;;;;;;5012738;28;20413;-68
2022/05/25 06:47:45;;;;;;;2.30;2.10;;;21.10;99.90;;;;;;5013048;28;20180;-68
2022/05/25 06:50:11;;;;;;;2.67;2.47;;;19.70;99.90;;;;;;5013193;28;20172;-68
2022/05/25 06:52:36;;;;;;;3.13;2.30;;;19.10;99.90;;;;;;5012981;28;20592;-68
2022/05/25 06:55:03;;;;;;;2.63;2.00;;;19.30;99.90;;;;;;5011213;28;20280;-68
2022/05/25 06:57:29;;;;;;;2.80;2.60;;;19.40;99.90;;;;;;5013342;28;20232;-68
2022/05/25 06:59:55;;;;;;;2.30;1.93;;;19.50;99.90;;;;;;5012218;28;20453;-68
2022/05/25 07:02:21;;;;;;;2.50;2.40;;;19.10;99.90;;;;;;5013575;28;20404;-69
2022/05/25 07:04:47;;;;;;;2.43;2.20;;;19.10;99.90;;;;;;5013068;28;20275;-68
2022/05/25 07:07:12;;;;;;;4.53;2.60;;;18.50;99.90;;;;;;5011751;28;20218;-67
2022/05/25 07:09:42;;;;;;;3.20;2.50;;;19.50;99.90;;;;;;5011828;28;20542;-68
2022/05/25 07:12:08;;;;;;;5.73;2.97;;;18.90;99.90;;;;;;5013431;28;20550;-67
2022/05/25 07:14:35;;;;;;;2.60;2.40;;;18.60;99.90;;;;;;5013335;28;20434;-67
2022/05/25 07:17:01;;;;;;;2.77;2.57;;;18.00;99.90;;;;;;5013978;28;20177;-67
2022/05/25 07:19:27;;;;;;;2.00;1.80;;;17.70;99.90;;;;;;5012668;28;20814;-67
2022/05/25 07:21:52;;;;;;;3.67;2.70;;;17.80;99.90;;;;;;5012388;28;20169;-67
2022/05/25 07:24:18;;;;;;;3.67;2.40;;;17.90;99.90;;;;;;5011633;28;20203;-67
2022/05/25 07:26:44;;;;;;;5.13;3.50;;;18.70;99.90;;;;;;5012113;28;20176;-67
2022/05/25 07:29:09;;;;;;;2.53;2.33;;;18.30;99.90;;;;;;5012448;28;20259;-67
2022/05/25 07:31:37;;;;;;;2.87;2.67;;;18.80;99.90;;;;;;5012564;28;20495;-66
2022/05/25 07:34:14;;;;;;;2.83;2.63;;;18.80;99.90;;;;;;5040328;23;20786;-68
2022/05/25 07:36:41;;;;;;;3.57;2.20;;;18.90;99.90;;;;;;5033120;28;20799;-68
2022/05/25 07:39:13;;;;;;;3.40;2.43;;;18.10;99.90;;;;;;5033430;28;20942;-69
2022/05/25 07:41:42;;;;;;;2.73;1.93;;;17.90;99.90;;;;;;5034618;28;20747;-69
2022/05/25 07:44:14;;;;;;;2.13;1.93;;;18.50;99.90;;;;;;5034146;28;20451;-68
2022/05/25 07:46:40;;;;;;;2.80;2.13;;;18.90;99.90;;;;;;5032489;28;20464;-69
2022/05/25 07:49:05;;;;;;;1.97;1.87;;;19.50;99.90;;;;;;5032757;28;20915;-68
2022/05/25 07:51:31;;;;;;;4.13;1.80;;;19.50;99.90;;;;;;5032647;28;20202;-68
2022/05/25 07:53:58;;;;;;;2.23;2.07;;;19.10;99.90;;;;;;5032170;28;20230;-68
2022/05/25 07:56:25;;;;;;;1.50;1.40;;;19.40;99.90;;;;;;5033390;28;20181;-68
2022/05/25 07:58:51;;;;;;;1.67;1.57;;;19.70;99.90;;;;;;5034282;28;20513;-68
2022/05/25 08:05:43;;;;;;;1.70;1.60;;;19.50;99.90;;;;;;5036712;28;20482;-68
2022/05/25 08:06:49;;;;;;;2.30;1.93;;;20.70;99.90;;;;;;5032746;28;20417;-68
2022/05/25 08:09:14;;;;;;;1.90;1.80;;;19.90;99.90;;;;;;5032864;28;20419;-69
2022/05/25 08:11:40;;;;;;;1.67;1.57;;;19.90;99.90;;;;;;5032364;28;20197;-69
2022/05/25 08:14:05;;;;;;;1.77;1.63;;;19.50;99.90;;;;;;5032619;28;20684;-69
2022/05/25 08:16:31;;;;;;;1.87;1.50;;;18.80;99.90;;;;;;5033233;28;20178;-69
2022/05/25 08:18:56;;;;;;;1.80;1.70;;;18.90;99.90;;;;;;5033517;28;20199;-69
2022/05/25 08:21:22;;;;;;;1.73;1.50;;;19.60;99.90;;;;;;5033549;28;20205;-69
2022/05/25 08:23:47;;;;;;;1.40;1.30;;;19.30;99.90;;;;;;5032735;28;20253;-68
2022/05/25 08:26:13;;;;;;;2.00;1.50;;;19.70;99.90;;;;;;5033695;28;20170;-69
2022/05/25 08:28:38;;;;;;;2.20;1.33;;;20.40;99.90;;;;;;5032956;28;20196;-68
2022/05/25 08:31:05;;;;;;;1.63;1.00;;;20.90;99.90;;;;;;5032594;28;20172;-68
2022/05/25 08:33:30;;;;;;;1.50;1.40;;;20.20;99.90;;;;;;5033569;28;20174;-68
2022/05/25 08:35:56;;;;;;;1.57;1.33;;;20.40;99.90;;;;;;5033700;28;20408;-68
2022/05/25 08:38:22;;;;;;;1.23;1.13;;;20.50;99.90;;;;;;5036902;28;20168;-68
2022/05/25 08:40:48;;;;;;;1.73;1.63;;;21.20;99.90;;;;;;5035588;28;20573;-68
2022/05/25 08:43:25;;;;;;;1.47;1.37;;;21.30;99.90;;;;;;5036030;28;20555;-68
2022/05/25 08:46:00;;;;;;;1.60;1.50;;;21.10;99.90;;;;;;5035645;28;20181;-69
2022/05/25 08:48:28;;;;;;;2.77;1.93;;;21.20;99.90;;;;;;5036133;28;20464;-68
2022/05/25 08:50:59;;;;;;;2.20;2.00;;;20.90;99.90;;;;;;5035890;28;20411;-68
2022/05/25 08:53:25;;;;;;;3.67;1.70;;;21.00;99.90;;;;;;5036083;28;20507;-68
2022/05/25 08:56:18;;;;;;;4.63;1.50;;;20.80;99.90;;;;;;5035361;28;20412;-68
2022/05/25 08:59:03;;;;;;;2.43;2.13;;;20.80;99.90;;;;;;5036630;28;20420;-70
2022/05/25 09:01:38;;;;;;;2.97;1.80;;;20.70;99.90;;;;;;5036998;28;20403;-68
2022/05/25 09:04:40;;;;;;;1.57;1.47;;;20.90;99.90;;;;;;5035616;28;20582;-68
2022/05/25 09:07:21;;;;;;;1.80;1.70;;;20.90;99.90;;;;;;5036771;28;20405;-68
2022/05/25 09:09:49;;;;;;;1.47;1.33;;;21.10;99.90;;;;;;5036980;28;20413;-68
2022/05/25 09:12:22;;;;;;;1.33;1.20;;;20.70;99.90;;;;;;5036364;28;20816;-68
2022/05/25 09:15:02;;;;;;;1.47;1.37;;;20.30;99.90;;;;;;5034195;28;20806;-68
2022/05/25 09:17:34;;;;;;;1.57;1.47;;;21.10;99.90;;;;;;5035019;28;20419;-69
2022/05/25 09:20:00;;;;;;;1.50;1.40;;;22.40;99.90;;;;;;5034991;28;20445;-68
2022/05/25 09:22:27;;;;;;;1.50;1.37;;;22.50;98.40;;;;;;5035279;28;20771;-68
2022/05/25 09:24:56;;;;;;;1.40;1.30;;;21.70;99.00;;;;;;5035548;28;20432;-68
2022/05/25 09:27:28;;;;;;;1.40;1.30;;;21.70;99.60;;;;;;5035261;28;20405;-68
2022/05/25 09:29:58;;;;;;;2.13;1.77;;;21.80;99.60;;;;;;5036067;28;20431;-68
2022/05/25 09:32:35;;;;;;;1.20;1.10;;;22.40;99.30;;;;;;5036194;28;20413;-69
2022/05/25 09:35:18;;;;;;;1.17;1.03;;;23.80;96.00;;;;;;5035919;28;20456;-69
2022/05/25 09:37:57;;;;;;;2.20;1.10;;;23.80;95.00;;;;;;5036297;28;20399;-69
2022/05/25 09:40:38;;;;;;;1.30;1.17;;;23.30;95.10;;;;;;5035623;28;20504;-69
2022/05/25 09:43:08;;;;;;;1.00;0.90;;;23.40;94.50;;;;;;5035037;28;20410;-68
2022/05/25 09:45:41;;;;;;;1.17;1.00;;;21.70;94.60;;;;;;5035538;28;20422;-69
2022/05/25 09:48:16;;;;;;;2.00;1.37;;;22.20;95.90;;;;;;5036048;28;20407;-69
2022/05/25 09:50:44;;;;;;;1.30;1.20;;;22.90;94.10;;;;;;5034725;28;20410;-69
2022/05/25 09:53:14;;;;;;;1.43;1.33;;;23.80;94.50;;;;;;5034439;28;20418;-69
2022/05/25 09:55:52;;;;;;;1.40;1.00;;;24.10;94.00;;;;;;5034007;28;20484;-69
2022/05/25 09:58:37;;;;;;;1.30;1.10;;;23.20;94.10;;;;;;5034453;28;20402;-68
2022/05/25 10:01:07;;;;;;;1.83;1.13;;;22.60;94.00;;;;;;5034690;28;20828;-69
2022/05/25 10:03:44;;;;;;;1.10;1.00;;;23.90;93.00;;;;;;5034654;28;20912;-68
2022/05/25 10:06:29;;;;;;;1.10;1.00;;;23.30;93.30;;;;;;5034032;28;20452;-68
2022/05/25 10:09:24;;;;;;;3.93;1.20;;;23.50;92.70;;;;;;5034320;28;20779;-68
2022/05/25 10:11:53;;;;;;;1.30;0.97;;;22.70;93.40;;;;;;5034357;28;20397;-68
2022/05/25 10:14:32;;;;;;;1.27;1.13;;;21.60;92.90;;;;;;5033979;28;20517;-68
2022/05/25 10:17:13;;;;;;;1.10;1.00;;;21.50;94.70;;;;;;5034331;28;20428;-68
2022/05/25 10:19:51;;;;;;;1.10;1.00;;;21.40;94.30;;;;;;5032706;28;20542;-68
2022/05/25 10:22:41;;;;;;;1.13;1.03;;;22.40;93.40;;;;;;5033811;28;20420;-68
2022/05/25 10:25:20;;;;;;;1.00;0.90;;;23.10;91.70;;;;;;5033690;28;20415;-68
2022/05/25 10:27:46;;;;;;;1.30;1.17;;;22.80;92.60;;;;;;5034472;28;20609;-69
2022/05/25 10:38:50;;;;;;;0.90;0.90;;;22.40;91.50;;;;;;5034444;28;20756;-69
2022/05/25 10:41:39;;;;;;;1.50;1.00;;;22.60;91.50;;;;;;5034148;28;20415;-69
2022/05/25 10:44:16;;;;;;;1.07;1.00;;;22.50;92.00;;;;;;5034364;28;20648;-69
2022/05/25 10:46:55;;;;;;;1.87;1.00;;;21.90;92.20;;;;;;5033829;28;20921;-69
2022/05/25 10:49:23;;;;;;;1.90;1.00;;;21.70;94.00;;;;;;5034185;28;20502;-69
2022/05/25 10:51:54;;;;;;;1.10;0.90;;;21.40;92.60;;;;;;5034155;28;20503;-68
2022/05/25 10:54:46;;;;;;;0.80;0.80;;;21.60;91.20;;;;;;5034409;28;20571;-69
2022/05/25 10:57:26;;;;;;;1.20;0.90;;;21.20;90.30;;;;;;5035812;28;20407;-68
2022/05/25 11:00:16;;;;;;;1.13;1.00;;;21.30;91.50;;;;;;5034940;28;20543;-68
2022/05/25 11:03:27;;;;;;;2.27;1.00;;;21.60;91.90;;;;;;5033818;28;20431;-68
2022/05/25 11:06:04;;;;;;;1.27;0.87;;;22.10;92.60;;;;;;5025692;28;20425;-68
2022/05/25 11:08:32;;;;;;;1.30;1.00;;;22.10;92.30;;;;;;5032333;28;20478;-69
2022/05/25 11:11:08;;;;;;;1.20;1.10;;;21.80;93.00;;;;;;5033814;28;20411;-69
2022/05/25 11:14:03;;;;;;;0.83;0.80;;;22.10;92.10;;;;;;5033411;28;20509;-68
2022/05/25 11:16:40;;;;;;;3.03;1.03;;;22.00;92.00;;;;;;5033407;28;20422;-68
2022/05/25 11:19:35;;;;;;;1.50;1.00;;;21.50;91.00;;;;;;5033253;28;20458;-68
2022/05/25 11:22:22;;;;;;;1.43;1.10;;;21.40;90.30;;;;;;5035360;28;20921;-69
2022/05/25 11:25:18;;;;;;;1.30;1.00;;;21.90;90.20;;;;;;5033582;28;20430;-68
2022/05/25 11:28:07;;;;;;;1.40;0.87;;;21.80;91.10;;;;;;5033545;28;20766;-68
2022/05/25 11:31:13;;;;;;;1.10;1.00;;;21.80;90.30;;;;;;5033647;28;20404;-68
2022/05/25 11:33:59;;;;;;;1.87;0.93;;;22.50;88.50;;;;;;5034248;28;20437;-68
2022/05/25 11:36:54;;;;;;;2.03;1.03;;;21.80;88.90;;;;;;5036027;28;20421;-69
2022/05/25 11:40:02;;;;;;;1.90;1.30;;;22.00;88.90;;;;;;5036023;28;20453;-68
2022/05/25 11:42:42;;;;;;;0.90;0.80;;;21.90;87.90;;;;;;5033328;28;20401;-69
2022/05/25 11:45:22;;;;;;;1.03;0.93;;;22.30;86.20;;;;;;5032950;28;20471;-68
2022/05/25 11:48:16;;;;;;;1.00;0.90;;;22.10;88.00;;;;;;5033165;28;20641;-68
2022/05/25 11:51:16;;;;;;;0.83;0.80;;;22.00;88.10;;;;;;5032071;28;20429;-68
2022/05/25 11:54:04;;;;;;;1.07;0.70;;;22.30;89.10;;;;;;5033202;28;20433;-68
2022/05/25 11:57:04;;;;;;;0.83;0.80;;;21.80;87.10;;;;;;5032865;28;20417;-68
2022/05/25 11:59:44;;;;;;;2.00;0.90;;;22.00;86.30;;;;;;5032981;28;20552;-68
2022/05/25 12:02:42;;;;;;;1.07;0.90;;;22.10;84.20;;;;;;5033551;28;20451;-69
2022/05/25 12:05:37;;;;;;;0.73;0.73;;;21.80;85.40;;;;;;5032976;28;20863;-69
2022/05/25 12:08:34;;;;;;;1.53;1.00;;;22.60;85.60;;;;;;5033472;28;20414;-69
2022/05/25 12:11:11;;;;;;;1.00;0.90;;;22.10;84.40;;;;;;5034261;28;20415;-70
2022/05/25 12:13:50;;;;;;;1.00;0.90;;;22.30;87.20;;;;;;5033610;28;20426;-69
2022/05/25 12:16:26;;;;;;;1.43;0.90;;;22.20;85.60;;;;;;5032813;28;20502;-69
2022/05/25 12:19:03;;;;;;;1.13;1.00;;;22.60;83.40;;;;;;5032462;28;20422;-69
2022/05/25 12:22:02;;;;;;;2.30;2.20;;;22.40;84.10;;;;;;5032704;28;20431;-69
2022/05/25 12:24:42;;;;;;;2.57;1.00;;;21.80;85.00;;;;;;5031157;28;20446;-69
2022/05/25 12:27:16;;;;;;;1.00;0.90;;;22.30;85.20;;;;;;5032899;28;20775;-69
2022/05/25 12:29:50;;;;;;;0.90;0.90;;;22.60;86.00;;;;;;5032471;28;20488;-68
2022/05/25 12:32:16;;;;;;;0.80;0.80;;;22.80;86.30;;;;;;5032450;28;20757;-68
2022/05/25 12:34:47;;;;;;;1.00;1.00;;;22.20;84.80;;;;;;5031964;28;20449;-68
2022/05/25 12:37:18;;;;;;;1.10;1.00;;;21.80;86.00;;;;;;5032522;28;20503;-68
2022/05/25 12:39:47;;;;;;;1.17;0.80;;;21.60;87.10;;;;;;5032930;28;20461;-69
2022/05/25 12:42:25;;;;;;;1.27;0.90;;;22.00;87.20;;;;;;5032908;28;20978;-68
2022/05/25 12:50:53;;;;;;;1.23;1.10;;;21.80;87.30;;;;;;5032004;28;20473;-69
2022/05/25 12:53:33;;;;;;;1.10;1.00;;;21.70;86.50;;;;;;5032313;28;20420;-69
2022/05/25 12:56:03;;;;;;;1.03;0.90;;;21.70;87.80;;;;;;5031802;28;20765;-69
2022/05/25 12:58:57;;;;;;;1.30;1.20;;;21.70;88.00;;;;;;5032234;28;20409;-69
2022/05/25 13:01:23;;;;;;;0.97;0.77;;;22.40;86.70;;;;;;5027920;28;20430;-69
2022/05/25 13:03:48;;;;;;;0.80;0.80;;;22.60;86.70;;;;;;5032311;28;20795;-69
2022/05/25 13:06:35;;;;;;;1.27;1.00;;;23.10;86.20;;;;;;5031888;28;20176;-68
2022/05/25 13:09:09;;;;;;;0.80;0.80;;;22.80;84.70;;;;;;5032186;28;20537;-68
2022/05/25 13:11:39;;;;;;;2.80;1.13;;;22.60;85.80;;;;;;5031209;28;20403;-68
2022/05/25 13:14:17;;;;;;;0.70;0.70;;;22.60;85.40;;;;;;5033197;28;20930;-68
2022/05/25 13:16:42;;;;;;;0.80;0.80;;;22.00;85.90;;;;;;5033895;28;20831;-69
2022/05/25 13:19:37;;;;;;;1.20;1.10;;;22.30;86.00;;;;;;5034350;28;20460;-69
2022/05/25 13:22:03;;;;;;;0.80;0.80;;;22.70;84.70;;;;;;5035121;28;20180;-69
2022/05/25 13:24:56;;;;;;;0.97;0.70;;;22.80;84.50;;;;;;5036110;28;20431;-68
2022/05/25 13:28:02;;;;;;;1.37;1.00;;;22.60;83.40;;;;;;5035775;28;20169;-68
2022/05/25 13:30:39;;;;;;;0.60;0.60;;;22.30;82.10;;;;;;5035224;28;20424;-69
2022/05/25 13:33:15;;;;;;;1.00;0.90;;;22.70;80.00;;;;;;5035069;28;20498;-69
2022/05/25 13:35:51;;;;;;;1.10;1.00;;;22.10;81.80;;;;;;5043206;23;21023;-68
2022/05/25 13:38:28;;;;;;;0.83;0.80;;;21.90;83.30;;;;;;5014679;28;20419;-67
2022/05/25 13:41:04;;;;;;;1.00;0.83;;;21.70;82.90;;;;;;5014598;28;20463;-67
2022/05/25 13:43:39;;;;;;;0.80;0.80;;;21.40;82.60;;;;;;5014785;28;20429;-67
2022/05/25 13:46:09;;;;;;;0.60;0.60;;;21.40;83.20;;;;;;5014198;28;20423;-68
2022/05/25 13:48:36;;;;;;;0.90;0.70;;;21.40;81.60;;;;;;5014729;28;20483;-67
2022/05/25 13:51:02;;;;;;;2.00;1.00;;;21.20;81.80;;;;;;5015010;28;20778;-69